Time;durP1;ratioP1;P1;durP2;ratioP2;P2;SDS_P1;SDS_P2;PMS_P1;PMS_P2;Temp;Humidity;BMP_temperature;BMP_pressure;BME280_temperature;BME280_humidity;BME280_pressure;Samples;Min_cycle;Max_cycle;Signal;HPM_P1;HPM_P2
2023/04/22 00:01:14;;;;;;;17.85;16.45;;;;;;;9.16;88.71;100677.09;5090947;28;20020;-59
2023/04/22 00:03:40;;;;;;;19.27;17.60;;;;;;;9.28;88.86;100671.06;5092199;28;20030;-59
2023/04/22 00:06:06;;;;;;;19.80;18.20;;;;;;;9.28;91.00;100680.81;5090490;28;20028;-59
2023/04/22 00:08:32;;;;;;;19.13;17.40;;;;;;;9.32;88.04;100661.09;5092296;28;20050;-59
2023/04/22 00:10:57;;;;;;;18.02;16.50;;;;;;;9.17;88.78;100670.84;5091915;28;20043;-59
2023/04/22 00:13:22;;;;;;;19.23;17.50;;;;;;;9.26;88.08;100670.28;5090717;28;20559;-59
2023/04/22 00:15:48;;;;;;;20.98;18.45;;;;;;;9.14;90.05;100665.72;5091974;28;20460;-59
2023/04/22 00:18:14;;;;;;;31.25;16.63;;;;;;;9.08;88.40;100674.03;5091754;28;20107;-59
2023/04/22 00:20:42;;;;;;;19.40;17.75;;;;;;;8.91;88.91;100663.56;5092074;28;20022;-59
2023/04/22 00:23:08;;;;;;;20.67;18.85;;;;;;;8.98;90.66;100670.25;5091726;28;20049;-59
2023/04/22 00:25:36;;;;;;;19.50;18.00;;;;;;;8.94;90.82;100672.22;5097567;28;20106;-59
2023/04/22 00:28:01;;;;;;;20.52;18.83;;;;;;;9.09;91.65;100671.31;5107780;28;20019;-59
2023/04/22 00:30:27;;;;;;;19.90;18.10;;;;;;;9.00;89.57;100663.03;5106977;28;20024;-59
2023/04/22 00:32:52;;;;;;;21.20;19.40;;;;;;;9.09;91.22;100665.16;5109416;28;20027;-59
2023/04/22 00:35:17;;;;;;;20.63;18.92;;;;;;;9.21;92.22;100666.22;5109214;28;20016;-59
2023/04/22 00:37:43;;;;;;;20.45;18.65;;;;;;;9.27;91.65;100664.03;5110380;28;20094;-59
2023/04/22 00:40:09;;;;;;;20.98;19.17;;;;;;;9.09;92.37;100665.16;5102794;28;20121;-59
2023/04/22 00:42:36;;;;;;;18.50;17.00;;;;;;;8.99;91.75;100656.88;5110820;28;20389;-59
2023/04/22 00:45:01;;;;;;;20.00;18.33;;;;;;;8.94;90.14;100660.75;5110627;28;20028;-59
2023/04/22 00:47:28;;;;;;;19.75;18.08;;;;;;;8.94;91.42;100658.09;5097042;28;20027;-59
2023/04/22 00:49:54;;;;;;;19.65;18.15;;;;;;;9.01;90.60;100668.25;5110584;28;20016;-59
2023/04/22 00:52:22;;;;;;;22.67;20.17;;;;;;;8.92;90.94;100671.47;5106575;28;20023;-59
2023/04/22 00:54:48;;;;;;;19.60;17.98;;;;;;;9.05;91.46;100674.22;5100830;28;20035;-59
2023/04/22 00:57:14;;;;;;;21.10;19.30;;;;;;;9.03;92.31;100663.72;5101494;28;20016;-59
2023/04/22 00:59:40;;;;;;;21.42;19.63;;;;;;;9.03;93.25;100665.50;5091689;28;20012;-59
2023/04/22 01:02:05;;;;;;;20.45;18.65;;;;;;;9.00;92.93;100666.56;5091454;28;20027;-59
2023/04/22 01:04:34;;;;;;;18.77;17.33;;;;;;;8.99;93.48;100679.91;5091738;28;20020;-59
2023/04/22 01:07:00;;;;;;;19.13;17.63;;;;;;;8.88;91.77;100672.56;5092063;28;20051;-59
2023/04/22 01:09:28;;;;;;;18.75;17.15;;;;;;;8.92;93.21;100667.97;5095641;28;20106;-59
2023/04/22 01:11:55;;;;;;;18.77;17.20;;;;;;;8.90;93.85;100662.72;5095147;28;20048;-59
2023/04/22 01:14:20;;;;;;;17.17;15.77;;;;;;;9.02;92.37;100666.44;5095189;28;20107;-59
2023/04/22 01:16:47;;;;;;;18.17;16.67;;;;;;;8.97;93.28;100666.75;5095285;28;20099;-59
2023/04/22 01:19:12;;;;;;;17.33;15.88;;;;;;;9.01;93.78;100656.78;5095489;28;20069;-59
2023/04/22 01:21:39;;;;;;;18.33;16.73;;;;;;;8.99;92.99;100654.22;5092628;28;20024;-59
2023/04/22 01:24:05;;;;;;;17.08;15.77;;;;;;;9.13;94.21;100669.31;5097547;28;20038;-59
2023/04/22 01:26:31;;;;;;;17.08;15.68;;;;;;;8.99;93.34;100666.63;5098850;28;20031;-59
2023/04/22 01:28:57;;;;;;;17.13;15.82;;;;;;;9.05;93.22;100667.13;5094930;28;20440;-59
2023/04/22 01:31:25;;;;;;;17.73;16.20;;;;;;;9.04;93.53;100660.13;5095155;28;20016;-59
2023/04/22 01:33:51;;;;;;;15.60;14.40;;;;;;;8.97;93.48;100656.13;5095076;28;20491;-59
2023/04/22 01:36:19;;;;;;;17.08;15.63;;;;;;;9.02;95.04;100638.13;5093194;28;20034;-59
2023/04/22 01:38:44;;;;;;;16.48;15.07;;;;;;;9.02;95.20;100656.69;5095012;28;20023;-59
2023/04/22 01:41:10;;;;;;;17.80;16.30;;;;;;;9.12;94.76;100649.06;5093645;28;20433;-59
2023/04/22 01:43:36;;;;;;;16.65;15.13;;;;;;;9.15;94.33;100654.19;5094910;28;20471;-59
2023/04/22 01:46:04;;;;;;;16.63;15.30;;;;;;;9.02;93.64;100661.16;5094481;28;20076;-59
2023/04/22 01:48:29;;;;;;;17.80;16.23;;;;;;;9.12;93.44;100653.47;5094538;28;20047;-59
2023/04/22 01:50:54;;;;;;;16.65;15.35;;;;;;;9.03;93.63;100658.41;5098627;28;20030;-59
2023/04/22 01:53:20;;;;;;;16.27;14.88;;;;;;;9.09;92.38;100652.75;5094564;28;20474;-59
2023/04/22 01:55:46;;;;;;;16.63;15.20;;;;;;;9.10;93.23;100654.44;5097950;28;20430;-59
2023/04/22 01:58:11;;;;;;;16.25;14.88;;;;;;;8.96;93.47;100643.78;5111327;28;20517;-59
2023/04/22 02:00:39;;;;;;;16.33;15.07;;;;;;;9.10;93.27;100643.81;5094951;28;20099;-59
2023/04/22 02:03:05;;;;;;;16.80;15.43;;;;;;;8.92;94.41;100649.38;5094409;28;20103;-59
2023/04/22 02:05:30;;;;;;;15.82;14.63;;;;;;;9.02;93.46;100637.28;5102065;28;20445;-59
2023/04/22 02:07:58;;;;;;;17.55;16.10;;;;;;;9.03;92.85;100655.75;5094895;28;20062;-59
2023/04/22 02:10:24;;;;;;;16.38;15.07;;;;;;;8.99;92.74;100656.88;5111112;28;20478;-58
2023/04/22 02:12:49;;;;;;;17.10;15.70;;;;;;;9.06;92.45;100646.78;5112100;28;20088;-59
2023/04/22 02:15:15;;;;;;;16.98;15.63;;;;;;;8.97;92.67;100655.25;5112511;28;20024;-59
2023/04/22 02:17:42;;;;;;;16.83;15.52;;;;;;;9.11;92.70;100655.28;5095102;28;20470;-59
2023/04/22 02:20:11;;;;;;;17.05;15.65;;;;;;;8.96;92.66;100651.75;5112486;28;20027;-59
2023/04/22 02:22:37;;;;;;;16.93;15.53;;;;;;;9.03;92.63;100647.81;5112849;28;20035;-59
2023/04/22 02:25:04;;;;;;;16.80;15.50;;;;;;;8.94;92.31;100653.66;5110820;28;20289;-59
2023/04/22 02:27:29;;;;;;;17.52;16.02;;;;;;;8.98;92.61;100646.38;5112633;28;20102;-59
2023/04/22 02:29:54;;;;;;;17.98;16.58;;;;;;;8.97;92.40;100628.72;5113210;28;20110;-59
2023/04/22 02:32:25;;;;;;;17.15;15.80;;;;;;;8.99;92.45;100637.47;5110555;28;20032;-59
2023/04/22 02:34:51;;;;;;;17.30;15.70;;;;;;;8.98;92.75;100626.00;5081091;28;20135;-59
2023/04/22 02:37:17;;;;;;;17.63;16.23;;;;;;;8.99;92.30;100640.13;5109777;28;20398;-59
2023/04/22 02:39:43;;;;;;;18.15;16.65;;;;;;;8.81;92.95;100631.47;5110486;28;20339;-59
2023/04/22 02:42:11;;;;;;;19.40;17.90;;;;;;;8.84;92.50;100636.56;5111438;28;20039;-59
2023/04/22 02:44:36;;;;;;;18.40;16.80;;;;;;;8.85;92.95;100627.66;5113066;28;20023;-59
2023/04/22 02:47:02;;;;;;;19.00;17.45;;;;;;;8.81;93.44;100632.31;5109086;28;20422;-59
2023/04/22 02:49:28;;;;;;;18.50;17.00;;;;;;;8.83;93.44;100637.53;5108904;28;20118;-59
2023/04/22 02:51:53;;;;;;;18.15;16.65;;;;;;;8.90;93.27;100622.94;5110634;28;20506;-59
2023/04/22 02:54:19;;;;;;;19.35;17.85;;;;;;;8.87;92.76;100633.75;5111808;28;20036;-59
2023/04/22 02:56:45;;;;;;;18.65;17.25;;;;;;;8.78;93.48;100626.34;5112337;28;20034;-59
2023/04/22 02:59:10;;;;;;;18.15;16.75;;;;;;;8.83;93.29;100624.28;5101590;28;20066;-59
2023/04/22 03:01:35;;;;;;;17.88;16.58;;;;;;;8.90;92.65;100630.06;5103983;28;20031;-59
2023/04/22 03:04:01;;;;;;;17.77;16.42;;;;;;;8.84;92.69;100636.56;5110439;28;20140;-58
2023/04/22 03:06:26;;;;;;;19.08;17.58;;;;;;;8.83;92.74;100627.78;5112055;28;20444;-59
2023/04/22 03:08:55;;;;;;;17.80;16.40;;;;;;;8.90;93.29;100630.06;5112362;28;20028;-59
2023/04/22 03:11:20;;;;;;;20.55;18.90;;;;;;;8.81;92.82;100621.69;5112116;27;20108;-58
2023/04/22 03:13:45;;;;;;;19.40;17.90;;;;;;;8.77;93.07;100612.22;5112554;28;20039;-58
2023/04/22 03:16:16;;;;;;;20.00;18.27;;;;;;;8.67;93.69;100616.34;5105936;28;20489;-58
2023/04/22 03:18:41;;;;;;;20.85;19.15;;;;;;;8.80;93.58;100620.00;5095331;28;20421;-58
2023/04/22 03:21:09;;;;;;;20.67;19.17;;;;;;;8.71;92.92;100611.75;5094845;28;20028;-58
2023/04/22 03:23:37;;;;;;;21.90;20.10;;;;;;;8.54;94.70;100607.44;5091785;28;20221;-58
2023/04/22 03:26:02;;;;;;;20.90;19.15;;;;;;;8.58;94.10;100601.84;5092551;28;20475;-58
2023/04/22 03:28:27;;;;;;;20.00;18.48;;;;;;;8.60;93.83;100602.59;5092317;28;20035;-58
2023/04/22 03:30:53;;;;;;;21.05;19.35;;;;;;;8.53;94.41;100595.97;5094408;28;20066;-58
2023/04/22 03:33:18;;;;;;;20.90;19.00;;;;;;;8.60;94.20;100602.59;5103448;28;20514;-59
2023/04/22 03:35:47;;;;;;;22.00;20.20;;;;;;;8.53;94.61;100590.69;5110112;28;20032;-59
2023/04/22 03:38:12;;;;;;;21.03;19.33;;;;;;;8.53;94.18;100581.84;5106766;28;20028;-58
2023/04/22 03:40:38;;;;;;;22.15;20.35;;;;;;;8.60;94.10;100589.34;5095338;28;20293;-58
2023/04/22 03:43:03;;;;;;;21.65;19.83;;;;;;;8.56;93.87;100586.97;5094852;28;20062;-58
2023/04/22 03:45:29;;;;;;;22.95;21.13;;;;;;;8.50;94.12;100580.25;5091170;28;20032;-58
2023/04/22 03:47:55;;;;;;;25.45;23.45;;;;;;;8.44;95.25;100580.59;5094422;28;20360;-58
2023/04/22 03:50:20;;;;;;;23.02;21.10;;;;;;;8.53;94.72;100571.25;5094458;28;20023;-58
2023/04/22 03:52:45;;;;;;;24.08;22.17;;;;;;;8.48;95.80;100574.19;5091093;28;20036;-58
2023/04/22 03:55:11;;;;;;;23.85;21.95;;;;;;;8.37;95.75;100565.97;5109220;28;20031;-58
2023/04/22 03:57:36;;;;;;;24.30;22.15;;;;;;;8.41;95.39;100567.50;5106133;28;20051;-58
2023/04/22 04:00:02;;;;;;;24.17;22.27;;;;;;;8.41;95.13;100573.69;5092988;28;20031;-58
2023/04/22 04:02:29;;;;;;;23.30;21.30;;;;;;;8.43;94.81;100583.34;5092068;28;20032;-58
2023/04/22 04:04:55;;;;;;;22.70;20.90;;;;;;;8.34;95.59;100564.34;5094391;28;20023;-58
2023/04/22 04:07:20;;;;;;;23.70;21.90;;;;;;;8.50;95.02;100563.47;5093631;28;20089;-58
2023/04/22 04:09:45;;;;;;;22.92;20.92;;;;;;;8.46;95.89;100561.97;5092152;28;20032;-58
2023/04/22 04:12:11;;;;;;;23.83;21.83;;;;;;;8.40;95.74;100557.88;5092029;28;20047;-58
2023/04/22 04:14:36;;;;;;;23.02;21.13;;;;;;;8.37;96.01;100563.31;5093634;28;20039;-58
2023/04/22 04:17:02;;;;;;;23.23;21.42;;;;;;;8.40;95.63;100568.47;5097162;28;20078;-58
2023/04/22 04:19:28;;;;;;;23.08;21.17;;;;;;;8.37;95.53;100558.88;5105657;28;20016;-58
2023/04/22 04:21:54;;;;;;;23.45;21.65;;;;;;;8.39;95.54;100559.66;5090119;28;20485;-58
2023/04/22 04:24:19;;;;;;;22.83;20.92;;;;;;;8.52;94.99;100553.66;5091874;28;20028;-58
2023/04/22 04:26:45;;;;;;;22.40;20.60;;;;;;;8.36;94.52;100549.22;5091933;28;20035;-58
2023/04/22 04:29:12;;;;;;;23.05;21.35;;;;;;;8.43;94.98;100557.69;5089379;28;20027;-58
2023/04/22 04:31:37;;;;;;;22.90;21.00;;;;;;;8.44;94.48;100543.47;5108444;28;20020;-58
2023/04/22 04:34:03;;;;;;;24.20;22.10;;;;;;;8.33;94.56;100560.00;5107778;28;20113;-58
2023/04/22 04:36:29;;;;;;;24.67;22.40;;;;;;;8.35;95.82;100563.44;5111818;28;20026;-58
2023/04/22 04:38:55;;;;;;;25.45;23.17;;;;;;;8.40;95.11;100557.88;5112046;28;20360;-58
2023/04/22 04:41:20;;;;;;;25.65;23.45;;;;;;;8.35;96.04;100563.44;5109926;28;20023;-58
2023/04/22 04:43:46;;;;;;;24.08;22.17;;;;;;;8.34;96.88;100555.56;5115202;28;20493;-58
2023/04/22 04:46:12;;;;;;;24.98;22.88;;;;;;;8.33;96.38;100552.06;5106453;28;20028;-58
2023/04/22 04:48:45;;;;;;;25.25;22.95;;;;;;;8.40;95.47;100561.38;5096110;28;20069;-58
2023/04/22 04:51:13;;;;;;;24.60;22.58;;;;;;;8.33;95.94;100565.28;5103019;28;20084;-58
2023/04/22 04:53:39;;;;;;;24.80;22.65;;;;;;;8.49;95.36;100570.56;5114359;28;20069;-58
2023/04/22 04:56:05;;;;;;;24.63;22.52;;;;;;;8.37;95.27;100563.31;5114861;28;20028;-58
2023/04/22 04:58:30;;;;;;;24.90;22.67;;;;;;;8.35;95.98;100566.06;5105456;28;20164;-58
2023/04/22 05:00:56;;;;;;;24.17;22.27;;;;;;;8.47;95.77;100575.13;5111630;28;20030;-58
2023/04/22 05:03:21;;;;;;;25.77;23.67;;;;;;;8.41;96.06;100576.34;5096277;28;20042;-58
2023/04/22 05:05:47;;;;;;;26.45;24.25;;;;;;;8.36;97.46;100566.91;5095713;28;20386;-58
2023/04/22 05:08:13;;;;;;;24.98;22.80;;;;;;;8.49;96.69;100575.88;5093547;28;20024;-58
2023/04/22 05:10:38;;;;;;;24.80;22.80;;;;;;;8.45;96.59;100568.22;5095733;28;20013;-58
2023/04/22 05:13:04;;;;;;;25.25;23.13;;;;;;;8.40;96.50;100560.53;5095523;28;20020;-58
2023/04/22 05:15:29;;;;;;;25.80;23.42;;;;;;;8.46;96.50;100540.75;5094063;28;20028;-59
2023/04/22 05:17:55;;;;;;;25.55;23.42;;;;;;;8.48;97.95;100542.38;5095445;28;20185;-58
2023/04/22 05:20:20;;;;;;;28.20;25.77;;;;;;;8.41;98.20;100543.66;5095312;28;20027;-58
2023/04/22 05:22:48;;;;;;;27.88;25.50;;;;;;;8.43;99.60;100546.25;5093397;28;20118;-58
2023/04/22 05:25:16;;;;;;;30.80;28.20;;;;;;;8.48;99.61;100549.47;5095297;28;20024;-58
2023/04/22 05:27:41;;;;;;;25.92;23.70;;;;;;;8.55;98.13;100554.31;5095338;28;20081;-58
2023/04/22 05:30:07;;;;;;;26.33;23.88;;;;;;;8.55;98.70;100559.59;5093323;28;20024;-58
2023/04/22 05:32:33;;;;;;;27.33;25.05;;;;;;;8.67;99.52;100555.38;5094973;28;20027;-58
2023/04/22 05:34:58;;;;;;;28.67;26.27;;;;;;;8.68;100.00;100543.84;5095104;28;20024;-58
2023/04/22 05:37:23;;;;;;;27.80;25.50;;;;;;;8.77;99.53;100547.75;5094295;28;20020;-58
2023/04/22 05:39:49;;;;;;;26.73;24.40;;;;;;;8.92;99.35;100545.97;5093732;28;20035;-58
2023/04/22 05:42:14;;;;;;;26.58;24.48;;;;;;;8.88;99.20;100545.25;5094722;28;20425;-58
2023/04/22 05:44:39;;;;;;;26.33;24.10;;;;;;;8.99;99.30;100540.16;5095179;28;20036;-58
2023/04/22 05:47:05;;;;;;;27.58;24.85;;;;;;;9.07;99.06;100556.47;5093408;28;20478;-58
2023/04/22 05:49:30;;;;;;;28.50;26.23;;;;;;;9.09;99.47;100545.78;5094753;28;20036;-58
2023/04/22 05:51:56;;;;;;;27.38;25.23;;;;;;;9.06;99.43;100548.63;5094095;28;20032;-58
2023/04/22 05:54:21;;;;;;;27.15;25.05;;;;;;;9.08;99.20;100542.25;5094356;28;20039;-58
2023/04/22 05:56:46;;;;;;;30.20;27.48;;;;;;;9.10;99.37;100547.47;5094716;28;20032;-58
2023/04/22 05:59:14;;;;;;;28.98;26.48;;;;;;;9.03;100.00;100536.41;5093354;28;20031;-58
2023/04/22 06:01:40;;;;;;;29.77;27.08;;;;;;;9.19;100.00;100535.44;5094692;28;20035;-58
2023/04/22 06:04:05;;;;;;;27.83;25.33;;;;;;;9.29;100.00;100547.16;5093332;28;20482;-58
2023/04/22 06:06:31;;;;;;;28.85;26.45;;;;;;;9.37;99.21;100544.03;5093836;28;20016;-58
2023/04/22 06:08:57;;;;;;;29.55;27.05;;;;;;;9.33;98.36;100540.75;5094591;28;20035;-58
2023/04/22 06:11:23;;;;;;;27.27;25.05;;;;;;;9.35;97.68;100546.78;5094101;28;20498;-58
2023/04/22 06:13:48;;;;;;;29.70;27.20;;;;;;;9.44;98.91;100542.69;5110138;28;20038;-58
2023/04/22 06:16:13;;;;;;;26.52;24.05;;;;;;;9.53;98.64;100550.09;5094181;28;20467;-58
2023/04/22 06:18:42;;;;;;;28.23;25.92;;;;;;;9.58;97.87;100549.78;5094651;28;20494;-58
2023/04/22 06:21:08;;;;;;;28.67;26.48;;;;;;;9.67;97.72;100538.56;5093776;28;20055;-58
2023/04/22 06:23:33;;;;;;;27.75;25.55;;;;;;;9.84;97.56;100532.19;5094218;28;20024;-58
2023/04/22 06:26:00;;;;;;;27.60;25.25;;;;;;;9.80;97.24;100528.03;5094056;28;20093;-58
2023/04/22 06:28:26;;;;;;;27.98;25.50;;;;;;;9.94;97.23;100528.84;5093893;28;20049;-58
2023/04/22 06:30:51;;;;;;;26.90;24.58;;;;;;;10.04;97.40;100530.88;5092520;28;20024;-58
2023/04/22 06:33:17;;;;;;;27.08;24.67;;;;;;;10.21;96.64;100535.94;5093667;28;20020;-58
2023/04/22 06:35:42;;;;;;;26.27;23.67;;;;;;;10.30;95.84;100534.50;5094221;28;20099;-58
2023/04/22 06:38:10;;;;;;;23.42;21.42;;;;;;;10.38;95.79;100533.03;5092319;28;20034;-58
2023/04/22 06:40:38;;;;;;;24.42;22.38;;;;;;;10.61;95.92;100536.78;5093782;28;20028;-57
2023/04/22 06:43:03;;;;;;;24.52;22.58;;;;;;;10.69;95.97;100529.13;5093600;28;20467;-58
2023/04/22 06:45:28;;;;;;;23.48;21.42;;;;;;;10.77;94.95;100520.63;5093713;28;20062;-58
2023/04/22 06:47:54;;;;;;;23.92;21.92;;;;;;;10.93;96.33;100517.75;5109179;28;20024;-59
2023/04/22 06:50:20;;;;;;;21.98;20.00;;;;;;;10.86;93.50;100516.47;5092165;28;20410;-59
2023/04/22 06:52:45;;;;;;;22.08;19.95;;;;;;;10.85;93.42;100509.44;5093111;28;20398;-59
2023/04/22 06:55:11;;;;;;;20.70;19.00;;;;;;;10.80;93.90;100519.56;5092531;28;20032;-58
2023/04/22 06:57:36;;;;;;;22.83;20.83;;;;;;;10.88;95.80;100514.53;5093479;28;20470;-59
2023/04/22 07:00:04;;;;;;;20.95;19.27;;;;;;;11.01;96.08;100523.38;5093466;28;20043;-59
2023/04/22 07:02:29;;;;;;;22.42;20.40;;;;;;;11.16;95.71;100515.28;5091895;28;20023;-59
2023/04/22 07:04:55;;;;;;;19.80;17.88;;;;;;;11.32;94.28;100523.88;5092847;28;20418;-59
2023/04/22 07:07:20;;;;;;;19.77;18.02;;;;;;;11.49;93.08;100522.66;5093218;28;20055;-58
2023/04/22 07:09:45;;;;;;;19.13;17.63;;;;;;;11.62;93.54;100510.16;5093425;28;20403;-59
2023/04/22 07:12:11;;;;;;;18.70;17.13;;;;;;;11.65;91.11;100519.72;5092902;28;20055;-59
2023/04/22 07:14:42;;;;;;;19.20;17.30;;;;;;;11.65;91.91;100509.06;5093281;28;20115;-59
2023/04/22 07:17:07;;;;;;;19.70;17.80;;;;;;;11.72;94.85;100521.84;5093122;28;20023;-59
2023/04/22 07:19:35;;;;;;;18.35;16.77;;;;;;;11.71;92.57;100506.81;5091801;28;20388;-59
2023/04/22 07:22:02;;;;;;;18.65;16.95;;;;;;;11.77;93.71;100514.38;5091056;28;20032;-59
2023/04/22 07:24:27;;;;;;;19.33;17.45;;;;;;;11.72;91.50;100521.84;5091628;28;20084;-59
2023/04/22 07:26:53;;;;;;;18.38;16.77;;;;;;;11.77;92.60;100526.84;5091377;28;20028;-59
2023/04/22 07:29:18;;;;;;;19.15;17.40;;;;;;;11.91;92.53;100521.38;5092924;28;20039;-59
2023/04/22 07:31:44;;;;;;;17.83;16.13;;;;;;;11.98;91.67;100519.13;5091163;28;20024;-59
2023/04/22 07:34:09;;;;;;;17.17;15.57;;;;;;;12.08;90.21;100513.94;5091717;28;20016;-59
2023/04/22 07:36:37;;;;;;;18.58;16.92;;;;;;;12.29;92.33;100520.31;5092709;28;20507;-59
2023/04/22 07:39:03;;;;;;;17.92;16.27;;;;;;;12.49;89.03;100511.66;5092822;28;20036;-59
2023/04/22 07:41:28;;;;;;;17.70;15.88;;;;;;;12.69;88.90;100514.63;5092340;28;20037;-59
2023/04/22 07:43:54;;;;;;;17.77;15.82;;;;;;;12.80;88.57;100522.63;5092760;28;20031;-59
2023/04/22 07:46:22;;;;;;;17.77;16.10;;;;;;;12.82;86.95;100525.19;5092146;28;20039;-59
2023/04/22 07:48:47;;;;;;;17.65;15.88;;;;;;;12.76;87.83;100517.66;5091654;28;20031;-59
2023/04/22 07:51:13;;;;;;;17.88;16.33;;;;;;;12.69;88.41;100514.63;5092155;28;20028;-59
2023/04/22 07:53:38;;;;;;;17.75;16.15;;;;;;;12.74;88.83;100499.09;5092778;28;20039;-59
2023/04/22 07:56:04;;;;;;;17.75;15.98;;;;;;;12.93;88.65;100499.34;5090812;28;20020;-59
2023/04/22 07:58:29;;;;;;;16.63;15.05;;;;;;;13.07;88.24;100502.75;5092576;28;20036;-59
2023/04/22 08:00:55;;;;;;;17.10;15.60;;;;;;;13.14;87.44;100493.28;5092011;28;20386;-59
2023/04/22 08:03:20;;;;;;;17.38;15.88;;;;;;;13.16;86.51;100489.53;5091149;28;20028;-59
2023/04/22 08:05:46;;;;;;;16.65;15.25;;;;;;;13.20;84.92;100479.44;5090923;28;20028;-59
2023/04/22 08:08:11;;;;;;;16.33;14.82;;;;;;;13.27;84.07;100487.88;5090876;28;20352;-59
2023/04/22 08:10:37;;;;;;;15.60;14.30;;;;;;;13.39;83.55;100482.38;5090758;28;20015;-59
2023/04/22 08:13:02;;;;;;;14.73;13.43;;;;;;;13.39;83.11;100482.38;5092035;28;20059;-59
2023/04/22 08:15:28;;;;;;;15.63;14.23;;;;;;;13.59;83.29;100480.75;5092054;28;20443;-59
2023/04/22 08:17:53;;;;;;;15.05;13.70;;;;;;;13.81;83.77;100485.19;5092167;28;20016;-59
2023/04/22 08:20:19;;;;;;;16.30;14.50;;;;;;;13.93;82.35;100480.63;5090788;28;20455;-59
2023/04/22 08:22:44;;;;;;;15.68;14.30;;;;;;;13.92;82.61;100467.41;5091679;28;20031;-59
2023/04/22 08:25:10;;;;;;;15.00;13.70;;;;;;;13.81;80.47;100471.81;5092071;28;20102;-59
2023/04/22 08:27:36;;;;;;;14.25;12.95;;;;;;;13.73;79.99;100466.25;5091865;28;20107;-59
2023/04/22 08:30:02;;;;;;;13.63;12.55;;;;;;;13.86;82.21;100474.13;5091783;28;20020;-59
2023/04/22 08:32:27;;;;;;;15.48;14.02;;;;;;;13.89;81.24;100475.69;5091702;28;20047;-59
2023/04/22 08:34:53;;;;;;;14.23;13.02;;;;;;;13.87;79.27;100473.13;5091981;28;20020;-59
2023/04/22 08:37:18;;;;;;;14.38;13.02;;;;;;;14.03;80.56;100465.53;5090078;28;20109;-59
2023/04/22 08:39:44;;;;;;;15.13;13.63;;;;;;;14.27;78.40;100453.75;5091965;28;20028;-59
2023/04/22 08:42:11;;;;;;;14.40;13.00;;;;;;;14.50;79.37;100443.72;5090673;28;20043;-59
2023/04/22 08:44:38;;;;;;;13.65;12.35;;;;;;;14.60;76.04;100446.50;5091768;28;20016;-59
2023/04/22 08:47:04;;;;;;;13.45;12.30;;;;;;;14.73;76.04;100431.91;5091753;28;20050;-59
2023/04/22 08:49:29;;;;;;;13.35;11.98;;;;;;;14.84;74.75;100438.19;5090590;28;20538;-59
2023/04/22 08:51:55;;;;;;;11.60;10.52;;;;;;;15.08;72.17;100436.00;5091599;28;20023;-59
2023/04/22 08:54:22;;;;;;;10.48;9.57;;;;;;;15.28;71.00;100444.94;5090369;28;20039;-59
2023/04/22 08:56:49;;;;;;;10.70;9.80;;;;;;;15.27;68.83;100440.59;5090529;28;20020;-59
2023/04/22 08:59:15;;;;;;;11.88;10.80;;;;;;;15.29;70.23;100443.13;5090298;28;20031;-59
2023/04/22 09:01:44;;;;;;;11.68;10.77;;;;;;;15.26;69.52;100441.56;5091686;28;20021;-59
2023/04/22 09:04:13;;;;;;;12.02;10.88;;;;;;;15.29;68.59;100435.06;5091912;28;20514;-59
2023/04/22 09:06:38;;;;;;;12.55;11.43;;;;;;;15.28;69.71;100446.78;5091461;28;20049;-59
2023/04/22 09:09:04;;;;;;;11.75;10.75;;;;;;;15.36;70.95;100445.13;5090312;28;20111;-59
2023/04/22 09:11:30;;;;;;;11.43;10.30;;;;;;;15.44;71.24;100442.59;5091360;28;20036;-59
2023/04/22 09:13:56;;;;;;;11.80;10.77;;;;;;;15.50;70.09;100443.88;5073481;28;20028;-59
2023/04/22 09:16:22;;;;;;;11.60;10.40;;;;;;;15.47;70.05;100437.94;5090208;28;20026;-59
2023/04/22 09:18:48;;;;;;;12.57;10.38;;;;;;;15.63;70.91;100435.56;5091645;28;20413;-59
2023/04/22 09:21:14;;;;;;;12.63;11.43;;;;;;;15.64;70.14;100438.09;5090871;28;20070;-59
2023/04/22 09:23:50;;;;;;;11.90;10.80;;;;;;;15.61;68.94;100430.34;5091606;28;20445;-59
2023/04/22 09:26:21;;;;;;;12.30;11.15;;;;;;;15.81;70.17;100433.91;5091161;28;20052;-59
2023/04/22 09:28:51;;;;;;;12.20;10.85;;;;;;;16.21;68.58;100424.88;5092075;28;20081;-60
2023/04/22 09:31:17;;;;;;;12.35;11.13;;;;;;;16.54;66.92;100426.19;5093691;28;20027;-67
2023/04/22 09:34:09;;;;;;;11.65;10.65;;;;;;;16.89;66.23;100422.00;5095067;28;20028;-65
2023/04/22 09:36:37;;;;;;;11.80;10.70;;;;;;;17.13;63.89;100421.47;5091677;28;20028;-66
2023/04/22 09:39:10;;;;;;;11.60;10.55;;;;;;;17.69;64.55;100422.22;5095225;28;20027;-65
2023/04/22 09:41:39;;;;;;;11.80;10.77;;;;;;;17.84;63.32;100427.94;5095263;28;20032;-64
2023/04/22 09:44:08;;;;;;;;;;;;;;;18.39;64.47;100425.03;5095306;28;20020;-64
2023/04/22 09:46:34;;;;;;;;;;;;;;;18.69;66.69;100436.34;5095044;28;19953;-64
2023/04/22 09:49:00;;;;;;;10.40;9.40;;;;;;;18.59;60.10;100441.84;5095070;28;20313;-66
2023/04/22 09:51:29;;;;;;;10.85;9.85;;;;;;;18.38;59.25;100443.03;5094219;28;20111;-63
2023/04/22 09:54:08;;;;;;;10.32;9.32;;;;;;;18.21;60.38;100429.63;5093581;28;20555;-64
2023/04/22 09:56:55;;;;;;;10.73;9.68;;;;;;;18.27;60.32;100434.38;5105109;28;20028;-68
2023/04/22 09:59:24;;;;;;;11.25;10.13;;;;;;;18.56;59.58;100431.34;5109379;28;20035;-68
2023/04/22 10:01:57;;;;;;;11.02;10.02;;;;;;;18.80;60.78;100436.94;5096708;28;20035;-61
2023/04/22 10:04:24;;;;;;;11.77;10.32;;;;;;;18.89;59.21;100437.81;5092147;28;20027;-61
2023/04/22 10:06:51;;;;;;;11.05;9.98;;;;;;;18.91;58.22;100432.25;5110512;28;20073;-66
2023/04/22 10:09:18;;;;;;;10.98;9.98;;;;;;;19.05;58.44;100435.19;5114931;28;20024;-63
2023/04/22 10:11:44;;;;;;;10.82;9.77;;;;;;;19.17;56.95;100438.44;5114409;28;20119;-63
2023/04/22 10:14:12;;;;;;;10.05;9.18;;;;;;;19.33;56.66;100447.63;5109900;28;20131;-66
2023/04/22 10:16:39;;;;;;;10.07;9.18;;;;;;;19.16;57.18;100433.22;5109109;28;20022;-65
2023/04/22 10:19:09;;;;;;;9.70;8.80;;;;;;;19.24;55.90;100444.03;5114809;28;20042;-66
2023/04/22 10:21:35;;;;;;;9.10;8.20;;;;;;;19.22;56.12;100443.34;5114072;28;20020;-65
2023/04/22 10:24:00;;;;;;;11.02;7.90;;;;;;;19.18;56.63;100448.22;5114520;28;20027;-66
2023/04/22 10:26:48;;;;;;;9.60;8.65;;;;;;;19.23;56.61;100439.63;5111497;28;20027;-65
2023/04/22 10:29:18;;;;;;;9.85;8.95;;;;;;;18.92;54.93;100432.13;5094877;28;20027;-64
2023/04/22 10:31:52;;;;;;;9.02;8.32;;;;;;;19.00;55.81;100436.69;5114311;28;20023;-64
2023/04/22 10:34:18;;;;;;;10.25;8.00;;;;;;;18.98;56.77;100428.75;5106655;28;20027;-66
2023/04/22 10:36:59;;;;;;;7.78;6.97;;;;;;;18.95;56.56;100423.69;5113718;28;20027;-63
2023/04/22 10:39:27;;;;;;;7.00;6.30;;;;;;;18.67;55.94;100414.09;5111914;28;20027;-65
2023/04/22 10:42:02;;;;;;;7.88;6.57;;;;;;;18.55;55.99;100402.75;5111407;28;20410;-65
2023/04/22 10:44:43;;;;;;;6.95;6.32;;;;;;;18.22;56.57;100413.28;5111561;27;20118;-59
2023/04/22 10:47:08;;;;;;;7.82;7.10;;;;;;;17.84;57.10;100423.41;5097916;28;20046;-60
2023/04/22 10:49:34;;;;;;;7.45;6.85;;;;;;;17.53;58.25;100417.56;5093730;28;20028;-60
2023/04/22 10:52:02;;;;;;;7.72;6.20;;;;;;;17.36;58.99;100421.91;5105014;28;20124;-60
2023/04/22 10:54:28;;;;;;;7.75;6.93;;;;;;;17.20;59.72;100438.66;5112807;28;20020;-60
2023/04/22 10:57:02;;;;;;;8.05;7.25;;;;;;;17.08;61.14;100444.41;5113991;28;20114;-59
2023/04/22 10:59:29;;;;;;;7.68;6.75;;;;;;;16.92;61.47;100445.88;5111849;28;20028;-60
2023/04/22 11:01:54;;;;;;;8.73;7.90;;;;;;;16.73;62.43;100444.06;5109791;28;20034;-59
2023/04/22 11:04:21;;;;;;;8.60;7.80;;;;;;;16.65;63.13;100433.25;5113705;28;20027;-59
2023/04/22 11:07:16;;;;;;;8.13;7.33;;;;;;;16.72;65.89;100447.75;5092613;28;20047;-60
2023/04/22 11:09:44;;;;;;;9.07;8.27;;;;;;;16.43;70.44;100452.38;5110625;28;20284;-60
2023/04/22 11:12:34;;;;;;;9.05;8.25;;;;;;;16.43;71.94;100447.84;5110039;28;20122;-60
2023/04/22 11:15:07;;;;;;;12.32;9.32;;;;;;;16.18;75.10;100441.25;5113707;28;20435;-60